Time;durP1;ratioP1;P1;durP2;ratioP2;P2;SDS_P1;SDS_P2;PMS_P1;PMS_P2;Temp;Humidity;BMP_temperature;BMP_pressure;BME280_temperature;BME280_humidity;BME280_pressure;Samples;Min_cycle;Max_cycle;Signal;HPM_P1;HPM_P2
2022/08/19 00:00:46;;;;;;;9.25;8.35;;;;;;;17.58;82.49;99364.19;5088564;28;20067;-55
2022/08/19 00:03:12;;;;;;;10.88;9.43;;;;;;;17.72;81.60;99364.81;5088498;28;20055;-51
2022/08/19 00:05:42;;;;;;;10.50;9.50;;;;;;;17.80;80.69;99362.41;5087672;28;20050;-54
2022/08/19 00:08:08;;;;;;;11.88;10.57;;;;;;;17.77;81.27;99354.59;5088092;28;20127;-50
2022/08/19 00:10:35;;;;;;;12.25;11.07;;;;;;;17.69;81.40;99363.28;5088272;28;20047;-49
2022/08/19 00:13:01;;;;;;;11.95;10.05;;;;;;;17.59;81.96;99362.38;5088238;28;20055;-48
2022/08/19 00:15:28;;;;;;;10.10;9.02;;;;;;;17.63;81.61;99355.81;5063775;28;20059;-55
2022/08/19 00:17:55;;;;;;;11.25;10.05;;;;;;;17.55;81.91;99364.47;5053091;28;20045;-55
2022/08/19 00:20:22;;;;;;;12.35;10.20;;;;;;;17.47;82.75;99358.91;5062363;28;20044;-54
2022/08/19 00:22:51;;;;;;;10.75;9.55;;;;;;;17.57;81.99;99356.31;5068431;28;20048;-75
2022/08/19 00:25:18;;;;;;;10.07;8.93;;;;;;;17.56;82.00;99358.16;5047969;28;20152;-74
2022/08/19 00:27:45;;;;;;;12.90;9.80;;;;;;;17.51;81.91;99348.88;5048433;28;20037;-73
2022/08/19 00:30:12;;;;;;;11.73;9.73;;;;;;;17.47;81.96;99350.09;5048259;28;20059;-72
2022/08/19 00:32:39;;;;;;;13.13;11.73;;;;;;;17.43;82.76;99348.69;5048380;28;20827;-75
2022/08/19 00:35:07;;;;;;;10.48;9.55;;;;;;;17.39;83.06;99345.41;5047858;28;20040;-74
2022/08/19 00:37:34;;;;;;;12.63;11.48;;;;;;;17.32;83.53;99346.91;5067929;28;20139;-73
2022/08/19 00:40:04;;;;;;;16.70;11.57;;;;;;;17.33;83.55;99346.78;5067589;28;20086;-72
2022/08/19 00:42:30;;;;;;;17.00;10.98;;;;;;;17.34;82.85;99348.47;5067725;28;20060;-73
2022/08/19 00:44:57;;;;;;;11.38;10.32;;;;;;;17.36;83.59;99341.19;5052902;28;20770;-73
2022/08/19 00:47:24;;;;;;;13.07;11.77;;;;;;;17.39;82.99;99340.91;5047908;28;20056;-75
2022/08/19 00:49:54;;;;;;;13.30;12.10;;;;;;;17.37;82.87;99334.03;5047773;28;20501;-73
2022/08/19 00:52:25;;;;;;;12.57;11.30;;;;;;;17.34;82.73;99334.31;5050571;28;20079;-74
2022/08/19 00:54:53;;;;;;;12.93;10.75;;;;;;;17.31;82.76;99342.56;5078561;28;20058;-74
2022/08/19 00:57:27;;;;;;;14.05;12.65;;;;;;;17.27;82.79;99341.13;5087948;28;20056;-75
2022/08/19 00:59:56;;;;;;;15.48;13.98;;;;;;;17.14;83.36;99351.97;5089675;28;20135;-75
2022/08/19 01:02:23;;;;;;;14.02;12.57;;;;;;;17.05;83.61;99353.56;5091428;28;20135;-75
2022/08/19 01:04:49;;;;;;;12.93;11.68;;;;;;;16.99;84.16;99351.41;5090655;28;20127;-73
2022/08/19 01:07:16;;;;;;;16.85;13.88;;;;;;;16.96;84.48;99346.34;5091186;28;20051;-73
2022/08/19 01:09:43;;;;;;;13.85;12.45;;;;;;;16.92;84.52;99348.41;5091547;28;20048;-73
2022/08/19 01:12:10;;;;;;;13.88;12.48;;;;;;;16.91;84.55;99352.06;5085957;28;20055;-72
2022/08/19 01:14:40;;;;;;;16.30;13.23;;;;;;;16.88;84.58;99349.66;5069227;28;20052;-74
2022/08/19 01:17:09;;;;;;;13.65;12.45;;;;;;;16.84;84.84;99344.72;5051190;28;20141;-74
2022/08/19 01:19:38;;;;;;;14.05;12.68;;;;;;;16.80;84.83;99344.09;5050665;28;20084;-74
2022/08/19 01:22:13;;;;;;;13.60;12.25;;;;;;;16.78;85.00;99345.16;5050947;28;20045;-75
2022/08/19 01:24:42;;;;;;;17.38;15.77;;;;;;;16.75;85.11;99336.44;5050168;28;20136;-74
2022/08/19 01:27:09;;;;;;;16.02;14.32;;;;;;;16.74;85.57;99340.09;5050996;28;20124;-75
2022/08/19 01:29:39;;;;;;;16.08;14.48;;;;;;;16.71;85.57;99336.81;5051108;28;20048;-76
2022/08/19 01:32:06;;;;;;;17.40;13.18;;;;;;;16.72;85.81;99338.53;5050619;28;20497;-75
2022/08/19 01:34:33;;;;;;;15.20;13.50;;;;;;;16.73;85.71;99340.22;5049886;28;20703;-75
2022/08/19 01:37:01;;;;;;;19.85;14.02;;;;;;;16.71;85.51;99344.81;5050718;28;20052;-75
2022/08/19 01:39:28;;;;;;;14.88;13.50;;;;;;;16.71;85.92;99351.00;5050766;28;20747;-76
2022/08/19 01:41:56;;;;;;;15.98;14.50;;;;;;;16.73;85.84;99348.19;5050659;28;20049;-75
2022/08/19 01:44:24;;;;;;;16.33;14.63;;;;;;;16.75;85.77;99351.59;5049682;28;20056;-74
2022/08/19 01:46:52;;;;;;;16.85;15.18;;;;;;;16.78;85.38;99363.78;5050314;28;20045;-76
2022/08/19 01:49:22;;;;;;;14.65;13.18;;;;;;;16.79;85.54;99354.88;5058942;28;20135;-74
2022/08/19 01:51:49;;;;;;;16.08;14.38;;;;;;;16.80;85.14;99352.09;5071822;28;20055;-74
2022/08/19 01:54:17;;;;;;;16.02;14.52;;;;;;;16.84;86.85;99348.19;5069619;28;20049;-74
2022/08/19 01:56:44;;;;;;;17.60;15.43;;;;;;;16.90;84.86;99350.34;5070104;28;20036;-73
2022/08/19 01:59:15;;;;;;;17.65;16.00;;;;;;;16.94;84.61;99350.97;5068402;28;20045;-73
2022/08/19 02:01:42;;;;;;;16.75;14.80;;;;;;;16.95;84.97;99339.31;5070294;28;20105;-75
2022/08/19 02:04:08;;;;;;;19.27;17.42;;;;;;;16.94;84.55;99338.47;5064704;28;20045;-75
2022/08/19 02:06:35;;;;;;;20.08;18.15;;;;;;;16.93;84.52;99344.78;5060431;28;20048;-73
2022/08/19 02:09:02;;;;;;;19.05;17.08;;;;;;;17.00;85.15;99350.44;5070217;28;20496;-73
2022/08/19 02:11:33;;;;;;;17.45;15.80;;;;;;;17.06;84.52;99352.59;5066285;28;20044;-74
2022/08/19 02:14:01;;;;;;;17.75;16.02;;;;;;;17.05;84.53;99352.72;5069325;28;20056;-73
2022/08/19 02:16:30;;;;;;;18.98;17.00;;;;;;;17.07;84.00;99345.44;5068626;28;20532;-73
2022/08/19 02:18:56;;;;;;;17.15;15.35;;;;;;;17.04;84.29;99349.22;5069614;28;20137;-73
2022/08/19 02:21:24;;;;;;;16.55;13.73;;;;;;;17.11;83.95;99346.91;5069773;28;20056;-73
2022/08/19 02:23:51;;;;;;;17.25;15.60;;;;;;;17.20;83.24;99342.59;5069741;28;20048;-74
2022/08/19 02:26:18;;;;;;;17.92;15.73;;;;;;;17.26;83.10;99348.28;5069298;28;20080;-74
2022/08/19 02:28:45;;;;;;;18.38;16.55;;;;;;;17.25;82.19;99346.56;5069808;28;20052;-74
2022/08/19 02:31:14;;;;;;;19.85;17.83;;;;;;;17.14;82.68;99351.97;5069705;28;20055;-74
2022/08/19 02:33:42;;;;;;;19.15;17.27;;;;;;;17.04;83.49;99345.72;5069836;28;20070;-75
2022/08/19 02:36:12;;;;;;;17.10;15.40;;;;;;;17.03;83.39;99346.66;5068553;28;20059;-75
2022/08/19 02:38:38;;;;;;;18.63;16.27;;;;;;;17.05;83.48;99342.06;5069473;28;20055;-75
2022/08/19 02:41:09;;;;;;;18.10;16.25;;;;;;;17.10;83.21;99351.34;5069315;28;20055;-73
2022/08/19 02:43:36;;;;;;;22.35;18.48;;;;;;;17.05;82.92;99356.22;5069368;28;20048;-73
2022/08/19 02:46:11;;;;;;;19.38;17.50;;;;;;;16.97;83.62;99357.84;5074909;28;20040;-74
2022/08/19 02:48:38;;;;;;;24.30;17.90;;;;;;;16.87;83.63;99361.25;5081147;28;20054;-74
2022/08/19 02:51:06;;;;;;;19.63;17.73;;;;;;;16.75;84.68;99356.91;5086177;28;20135;-74
2022/08/19 02:53:32;;;;;;;20.95;17.50;;;;;;;16.77;84.75;99354.97;5066859;28;20041;-74
2022/08/19 02:55:59;;;;;;;20.88;18.67;;;;;;;16.74;84.74;99357.88;5068537;28;20599;-73
2022/08/19 02:58:26;;;;;;;20.15;18.05;;;;;;;16.67;85.15;99360.19;5069188;28;20563;-74
2022/08/19 03:00:54;;;;;;;19.92;18.13;;;;;;;16.67;85.13;99359.34;5069434;28;20079;-74
2022/08/19 03:03:21;;;;;;;20.35;18.33;;;;;;;16.66;85.52;99362.97;5069785;28;20453;-74
2022/08/19 03:05:48;;;;;;;18.48;16.58;;;;;;;16.71;86.07;99355.47;5068990;28;20044;-75
2022/08/19 03:08:16;;;;;;;18.85;16.23;;;;;;;16.85;85.29;99360.53;5068970;28;20148;-75
2022/08/19 03:10:45;;;;;;;19.17;16.77;;;;;;;16.89;84.32;99363.81;5069689;28;20059;-75
2022/08/19 03:13:13;;;;;;;18.08;16.25;;;;;;;16.92;84.39;99363.53;5069290;28;20048;-75
2022/08/19 03:15:41;;;;;;;18.70;16.80;;;;;;;16.97;84.20;99360.50;5058895;28;20059;-75
2022/08/19 03:18:08;;;;;;;20.38;16.50;;;;;;;16.96;84.69;99367.66;5048994;28;20045;-75
2022/08/19 03:20:40;;;;;;;24.15;19.95;;;;;;;17.02;83.03;99374.28;5049215;28;20104;-74
2022/08/19 03:23:06;;;;;;;19.35;17.17;;;;;;;16.95;83.49;99379.25;5048972;28;20053;-74
2022/08/19 03:25:40;;;;;;;18.52;16.63;;;;;;;16.91;84.37;99369.84;5048181;28;20063;-75
2022/08/19 03:28:07;;;;;;;20.20;18.08;;;;;;;16.94;83.84;99378.44;5049195;28;20056;-74
2022/08/19 03:30:33;;;;;;;17.60;15.90;;;;;;;16.98;83.93;99371.00;5049082;28;20072;-73
2022/08/19 03:33:00;;;;;;;20.83;18.63;;;;;;;17.05;83.45;99376.69;5049103;28;20136;-75
2022/08/19 03:35:27;;;;;;;19.20;16.33;;;;;;;17.14;84.10;99370.59;5048373;28;20393;-74
2022/08/19 03:37:53;;;;;;;19.52;17.60;;;;;;;17.20;82.57;99375.41;5049084;28;20140;-75
2022/08/19 03:40:20;;;;;;;24.95;22.55;;;;;;;17.17;82.01;99378.34;5048526;28;20053;-74
2022/08/19 03:42:49;;;;;;;28.83;21.40;;;;;;;17.16;81.95;99376.66;5073070;28;20045;-75
2022/08/19 03:45:15;;;;;;;19.77;17.80;;;;;;;17.08;83.37;99373.75;5084196;28;20104;-75
2022/08/19 03:47:42;;;;;;;19.75;17.65;;;;;;;17.12;82.85;99372.53;5088878;28;20039;-74
2022/08/19 03:50:09;;;;;;;20.27;17.90;;;;;;;17.05;83.27;99360.72;5088556;28;20139;-74
2022/08/19 03:52:37;;;;;;;26.40;23.85;;;;;;;16.98;82.42;99363.03;5088260;28;20052;-73
2022/08/19 03:55:04;;;;;;;26.50;23.50;;;;;;;16.93;83.90;99366.09;5088115;28;20044;-74
2022/08/19 03:57:32;;;;;;;17.92;16.08;;;;;;;16.93;84.75;99368.75;5088433;28;20135;-74
2022/08/19 04:00:00;;;;;;;22.95;20.60;;;;;;;17.00;83.61;99366.41;5088459;28;20055;-75
2022/08/19 04:02:26;;;;;;;21.15;18.70;;;;;;;16.93;84.45;99366.09;5088510;28;20040;-75
2022/08/19 04:04:54;;;;;;;21.65;19.35;;;;;;;16.97;84.26;99374.66;5088023;28;20048;-74
2022/08/19 04:07:21;;;;;;;29.98;26.15;;;;;;;16.97;84.00;99372.00;5088477;28;20101;-74
2022/08/19 04:09:48;;;;;;;21.45;19.17;;;;;;;17.00;84.91;99381.56;5073569;28;20106;-75
2022/08/19 04:12:15;;;;;;;30.00;26.65;;;;;;;16.99;83.69;99375.38;5068214;28;20052;-75
2022/08/19 04:14:42;;;;;;;25.17;19.23;;;;;;;17.01;84.22;99373.44;5065476;28;20040;-75
2022/08/19 04:17:10;;;;;;;24.75;22.10;;;;;;;17.07;84.23;99367.59;5048041;28;20492;-75
2022/08/19 04:19:38;;;;;;;21.30;19.13;;;;;;;17.03;83.58;99363.53;5050263;28;20056;-75
2022/08/19 04:22:06;;;;;;;22.02;19.73;;;;;;;17.04;83.80;99370.53;5048006;28;20439;-77
2022/08/19 04:24:34;;;;;;;24.70;22.13;;;;;;;17.09;82.84;99368.31;5047265;28;20085;-76
2022/08/19 04:27:01;;;;;;;23.40;20.70;;;;;;;17.09;84.23;99370.97;5048076;28;20053;-76
2022/08/19 04:29:29;;;;;;;31.08;26.20;;;;;;;17.14;83.99;99378.59;5048086;28;20060;-75
2022/08/19 04:31:58;;;;;;;30.90;26.77;;;;;;;17.10;85.29;99387.81;5047976;28;20068;-76
2022/08/19 04:34:28;;;;;;;39.63;32.17;;;;;;;17.12;85.22;99383.19;5048190;28;20045;-75
2022/08/19 04:36:58;;;;;;;40.83;34.75;;;;;;;17.16;85.44;99381.97;5051639;28;20052;-74
2022/08/19 04:42:38;;;;;;;35.63;27.83;;;;;;;17.29;85.54;99379.13;5080374;28;20509;-74
2022/08/19 04:44:59;;;;;;;36.53;27.65;;;;;;;17.37;85.66;99374.84;5085188;28;20523;-75
2022/08/19 04:47:26;;;;;;;33.97;29.75;;;;;;;17.44;86.57;99383.16;5052058;28;20045;-74
2022/08/19 04:49:54;;;;;;;47.08;37.22;;;;;;;17.50;85.96;99381.81;5051813;28;20051;-72
2022/08/19 04:52:20;;;;;;;46.33;37.50;;;;;;;17.51;86.20;99380.84;5051275;28;20056;-73
2022/08/19 04:54:47;;;;;;;43.45;35.00;;;;;;;17.50;86.58;99385.34;5050905;28;20591;-75
2022/08/19 04:57:15;;;;;;;46.55;37.13;;;;;;;17.58;87.00;99390.84;5051550;28;20413;-74
2022/08/19 04:59:41;;;;;;;56.42;44.30;;;;;;;17.59;86.03;99394.34;5051454;28;20049;-75
2022/08/19 05:02:10;;;;;;;46.38;37.95;;;;;;;17.62;86.96;99409.25;5051484;28;20052;-74
2022/08/19 05:04:39;;;;;;;63.80;45.88;;;;;;;17.61;86.42;99413.75;5050806;28;20140;-73
2022/08/19 05:07:07;;;;;;;65.03;49.05;;;;;;;17.60;87.71;99412.91;5050921;28;20131;-74
2022/08/19 05:09:34;;;;;;;61.45;46.88;;;;;;;17.60;88.06;99418.22;5051298;28;20044;-75
2022/08/19 05:12:01;;;;;;;57.38;40.88;;;;;;;17.60;88.53;99418.22;5055195;28;20055;-76
2022/08/19 05:14:28;;;;;;;53.15;40.08;;;;;;;17.63;88.54;99416.28;5070443;28;20048;-76
2022/08/19 05:16:55;;;;;;;69.55;52.78;;;;;;;17.64;88.48;99416.13;5051217;28;20424;-74
2022/08/19 05:24:51;;;;;;;66.45;49.22;;;;;;;17.70;88.09;99433.47;5050771;28;20131;-75
2022/08/19 05:27:17;;;;;;;57.65;45.08;;;;;;;17.67;88.10;99433.69;5050965;28;20068;-75
2022/08/19 05:29:44;;;;;;;65.40;46.50;;;;;;;17.64;88.38;99434.78;5050758;28;20406;-75
2022/08/19 05:32:10;;;;;;;63.45;47.40;;;;;;;17.57;88.13;99437.16;5050911;28;20087;-76
2022/08/19 05:34:38;;;;;;;51.63;41.85;;;;;;;17.52;88.32;99433.16;5063456;28;20065;-76
2022/08/19 05:37:08;;;;;;;57.65;43.50;;;;;;;17.47;87.94;99422.88;5082482;28;20099;-75
2022/08/19 05:39:36;;;;;;;53.13;42.92;;;;;;;17.43;87.94;99424.13;5091001;28;20658;-75
2022/08/19 05:42:06;;;;;;;50.03;40.35;;;;;;;17.39;87.69;99420.88;5091089;28;20487;-74
2022/08/19 05:44:36;;;;;;;49.85;40.45;;;;;;;17.36;87.88;99413.13;5090274;28;20059;-73
2022/08/19 05:47:05;;;;;;;56.22;40.60;;;;;;;17.33;87.92;99415.22;5089537;28;20045;-73
2022/08/19 05:49:34;;;;;;;51.50;40.97;;;;;;;17.33;88.23;99409.88;5091145;28;20055;-73
2022/08/19 05:52:04;;;;;;;51.50;40.25;;;;;;;17.34;88.46;99411.56;5090786;28;20135;-74
2022/08/19 05:54:33;;;;;;;56.42;42.08;;;;;;;17.34;87.97;99416.91;5090223;28;20498;-73
2022/08/19 05:56:59;;;;;;;46.17;37.30;;;;;;;17.34;87.82;99415.06;5090605;28;20066;-75
2022/08/19 05:59:26;;;;;;;52.10;38.33;;;;;;;17.32;87.58;99417.00;5090896;28;20389;-75
2022/08/19 06:01:56;;;;;;;47.70;37.75;;;;;;;17.34;87.52;99425.72;5081655;28;20489;-74
2022/08/19 06:04:24;;;;;;;46.80;35.58;;;;;;;17.36;87.07;99421.13;5060896;28;20072;-74
2022/08/19 06:06:53;;;;;;;43.97;34.47;;;;;;;17.41;86.78;99406.59;5067120;28;20098;-73
2022/08/19 06:09:20;;;;;;;41.33;34.67;;;;;;;17.44;86.64;99417.81;5069952;28;20040;-73
2022/08/19 06:11:53;;;;;;;42.60;34.45;;;;;;;17.50;86.30;99419.97;5070089;28;20044;-72
2022/08/19 06:14:22;;;;;;;41.70;32.95;;;;;;;17.64;86.51;99420.63;5069213;28;20471;-64
2022/08/19 06:16:51;;;;;;;37.95;32.17;;;;;;;17.84;85.03;99425.13;5050207;28;20130;-53
2022/08/19 06:19:19;;;;;;;38.67;33.08;;;;;;;17.97;83.63;99416.97;5049662;28;20064;-50
2022/08/19 06:21:48;;;;;;;35.30;29.17;;;;;;;18.10;83.25;99414.91;5052138;28;20131;-53
2022/08/19 06:24:16;;;;;;;35.38;30.58;;;;;;;18.27;82.38;99415.28;5048970;28;20040;-49
2022/08/19 06:26:45;;;;;;;35.95;30.38;;;;;;;18.45;81.12;99421.66;5049733;28;20057;-51
2022/08/19 06:29:15;;;;;;;43.67;33.08;;;;;;;18.62;80.38;99422.84;5050001;28;20446;-52
2022/08/19 06:31:43;;;;;;;34.67;30.17;;;;;;;18.75;79.50;99420.75;5080859;28;20040;-54
2022/08/19 06:34:10;;;;;;;37.17;30.75;;;;;;;18.81;78.74;99430.94;5087564;28;20156;-49
2022/08/19 06:36:40;;;;;;;38.72;31.88;;;;;;;18.87;78.42;99432.22;5090532;28;20060;-52
2022/08/19 06:39:10;;;;;;;37.03;30.90;;;;;;;18.94;78.17;99436.03;5071514;28;20144;-53
2022/08/19 06:41:38;;;;;;;47.38;32.35;;;;;;;19.03;77.65;99442.38;5049897;28;20049;-49
2022/08/19 06:44:06;;;;;;;37.17;30.65;;;;;;;19.12;77.30;99446.03;5048672;28;20049;-53
2022/08/19 06:46:34;;;;;;;37.50;30.35;;;;;;;19.24;76.48;99442.25;5049001;28;20051;-50
2022/08/19 06:49:01;;;;;;;36.50;28.63;;;;;;;19.29;76.08;99432.00;5049228;28;20053;-51
2022/08/19 06:51:28;;;;;;;35.53;29.42;;;;;;;19.35;75.62;99439.47;5049152;28;20067;-50
2022/08/19 06:53:56;;;;;;;34.33;27.88;;;;;;;19.38;75.41;99433.81;5048370;28;20045;-52
2022/08/19 06:56:30;;;;;;;38.28;29.30;;;;;;;19.49;75.18;99436.38;5048812;28;20049;-55
2022/08/19 06:58:57;;;;;;;40.15;31.88;;;;;;;19.69;73.45;99447.06;5048767;28;20513;-49
2022/08/19 07:01:23;;;;;;;30.38;26.13;;;;;;;19.82;72.82;99452.97;5049075;28;20051;-53
2022/08/19 07:03:51;;;;;;;33.88;25.05;;;;;;;19.95;71.62;99448.16;5048948;28;20133;-54
2022/08/19 07:06:19;;;;;;;31.15;23.65;;;;;;;20.11;71.09;99449.41;5050803;28;20064;-60
2022/08/19 07:08:47;;;;;;;44.15;26.02;;;;;;;20.26;71.24;99452.47;5050806;28;20453;-51
2022/08/19 07:11:17;;;;;;;27.90;22.02;;;;;;;20.37;69.48;99457.63;5049128;28;20053;-49
2022/08/19 07:13:45;;;;;;;33.30;22.55;;;;;;;20.47;70.02;99460.28;5067122;28;20626;-49
2022/08/19 07:16:15;;;;;;;32.92;25.38;;;;;;;20.58;68.33;99463.66;5067769;28;20060;-52
2022/08/19 07:18:42;;;;;;;34.83;27.73;;;;;;;20.64;68.67;99472.06;5068436;28;20040;-61
2022/08/19 07:21:13;;;;;;;42.63;33.25;;;;;;;20.63;68.22;99483.78;5068864;28;20051;-49
2022/08/19 07:23:40;;;;;;;33.35;27.80;;;;;;;20.64;68.80;99480.13;5068512;28;20051;-49
2022/08/19 07:26:10;;;;;;;42.17;30.42;;;;;;;20.70;68.58;99475.03;5067712;28;20582;-67
2022/08/19 07:28:38;;;;;;;44.92;33.22;;;;;;;20.73;68.58;99480.06;5078522;28;20048;-69
2022/08/19 07:31:06;;;;;;;40.72;32.15;;;;;;;20.75;69.02;99480.78;5087298;28;20052;-68
2022/08/19 07:33:36;;;;;;;36.17;31.27;;;;;;;20.78;69.15;99469.75;5088286;28;20044;-69
2022/08/19 07:36:04;;;;;;;47.58;35.53;;;;;;;20.78;68.95;99482.31;5087881;28;20044;-68
2022/08/19 07:38:33;;;;;;;44.30;33.95;;;;;;;20.76;69.32;99481.59;5087556;28;20135;-47
2022/08/19 07:41:00;;;;;;;44.22;33.90;;;;;;;20.85;69.29;99486.09;5086636;28;20655;-48
2022/08/19 07:43:27;;;;;;;50.08;37.28;;;;;;;20.89;69.03;99483.94;5086936;28;20048;-45
2022/08/19 07:45:56;;;;;;;50.60;38.03;;;;;;;20.79;69.65;99484.81;5086715;28;20047;-45
2022/08/19 07:48:25;;;;;;;49.85;36.58;;;;;;;20.88;69.84;99487.63;5087146;28;20503;-47
2022/08/19 07:50:52;;;;;;;43.95;36.83;;;;;;;20.99;69.09;99495.44;5086958;28;20523;-48
2022/08/19 07:53:19;;;;;;;45.17;36.88;;;;;;;21.03;69.27;99499.53;5074271;28;20166;-45
2022/08/19 07:55:47;;;;;;;46.00;34.72;;;;;;;21.14;68.84;99501.13;5066200;28;20567;-47
2022/08/19 07:58:16;;;;;;;43.38;36.47;;;;;;;21.10;68.69;99505.97;5066972;28;20044;-44
2022/08/19 08:00:44;;;;;;;40.50;32.10;;;;;;;21.21;68.37;99508.44;5066395;28;20051;-46
2022/08/19 08:03:11;;;;;;;41.05;31.80;;;;;;;21.30;68.18;99508.53;5066794;28;20050;-45
2022/08/19 08:11:07;;;;;;;37.08;32.20;;;;;;;21.46;66.43;99503.34;5071415;28;20146;-47
2022/08/19 08:13:35;;;;;;;35.97;29.73;;;;;;;21.52;65.89;99510.81;5070634;28;20049;-48
2022/08/19 08:16:02;;;;;;;39.00;31.08;;;;;;;21.63;65.37;99501.69;5057541;28;20557;-46
2022/08/19 08:18:29;;;;;;;42.38;27.70;;;;;;;21.79;64.53;99501.84;5053067;28;20044;-47
2022/08/19 08:20:57;;;;;;;36.97;27.40;;;;;;;21.89;64.15;99499.06;5050963;28;20057;-44
2022/08/19 08:23:25;;;;;;;35.13;28.77;;;;;;;22.06;63.36;99503.56;5069241;28;20052;-47
2022/08/19 08:25:52;;;;;;;33.42;29.13;;;;;;;22.17;63.06;99504.31;5082923;28;20082;-46
2022/08/19 08:28:20;;;;;;;34.42;30.13;;;;;;;22.21;62.86;99511.94;5090990;28;20044;-48
2022/08/19 08:30:48;;;;;;;39.60;32.67;;;;;;;22.27;62.66;99507.75;5074035;28;20135;-47
2022/08/19 08:33:17;;;;;;;33.30;28.95;;;;;;;22.21;63.28;99513.78;5050137;28;20397;-47
2022/08/19 08:35:45;;;;;;;34.85;31.10;;;;;;;22.18;63.28;99517.59;5049938;28;20049;-45
2022/08/19 08:38:12;;;;;;;41.20;34.47;;;;;;;22.25;63.10;99518.69;5050346;28;20049;-45
2022/08/19 08:40:44;;;;;;;38.60;34.20;;;;;;;22.25;62.99;99517.84;5050273;28;20052;-46
2022/08/19 08:43:22;;;;;;;38.30;34.30;;;;;;;22.14;63.36;99518.06;5050388;28;20144;-46
2022/08/19 08:45:53;;;;;;;40.25;34.78;;;;;;;22.07;63.41;99523.19;5056142;28;20105;-44
2022/08/19 08:48:36;;;;;;;39.85;33.38;;;;;;;21.96;63.56;99521.59;5070296;28;20083;-47
2022/08/19 08:51:05;;;;;;;44.35;35.70;;;;;;;21.81;64.10;99524.00;5070304;28;20419;-44
2022/08/19 08:53:34;;;;;;;39.78;34.85;;;;;;;21.87;63.89;99527.91;5069569;28;20048;-45
2022/08/19 08:56:03;;;;;;;42.38;34.58;;;;;;;21.91;63.75;99526.59;5069190;28;20056;-46
2022/08/19 08:58:43;;;;;;;38.42;34.20;;;;;;;22.06;63.35;99530.41;5070137;28;20058;-47
2022/08/19 09:01:11;;;;;;;36.63;32.72;;;;;;;22.23;62.73;99525.22;5070218;28;20053;-44
2022/08/19 09:03:43;;;;;;;40.30;35.83;;;;;;;22.44;61.77;99524.84;5069590;28;20048;-48
2022/08/19 09:06:15;;;;;;;47.60;39.15;;;;;;;22.31;62.46;99527.09;5069279;28;20056;-68
2022/08/19 09:08:50;;;;;;;43.83;35.42;;;;;;;22.20;62.35;99515.63;5069836;28;20053;-68
2022/08/19 09:11:29;;;;;;;39.50;35.22;;;;;;;22.27;62.22;99516.69;5070911;28;20052;-68
2022/08/19 09:14:08;;;;;;;40.33;34.20;;;;;;;22.37;62.27;99510.34;5069646;28;20763;-68
2022/08/19 09:16:35;;;;;;;42.53;36.67;;;;;;;22.29;62.45;99521.88;5053517;28;20071;-68
2022/08/19 09:19:05;;;;;;;42.50;37.47;;;;;;;22.26;62.17;99519.53;5055301;28;20543;-67
2022/08/19 09:21:31;;;;;;;41.58;34.92;;;;;;;22.25;62.32;99521.38;5079442;28;20102;-68
2022/08/19 09:23:58;;;;;;;43.92;35.78;;;;;;;22.34;61.82;99521.41;5088816;28;20634;-67
2022/08/19 09:26:26;;;;;;;39.03;32.72;;;;;;;22.52;61.43;99519.53;5089564;28;20051;-67
2022/08/19 09:28:54;;;;;;;34.60;30.50;;;;;;;22.84;60.71;99516.16;5088198;28;20510;-66
2022/08/19 09:31:26;;;;;;;41.03;33.97;;;;;;;23.39;58.20;99516.72;5088650;28;20077;-67
2022/08/19 09:33:56;;;;;;;35.65;31.38;;;;;;;24.00;56.06;99510.91;5087969;28;20609;-66
2022/08/19 09:36:25;;;;;;;35.05;30.02;;;;;;;24.80;53.95;99510.09;5088905;28;20241;-66
2022/08/19 09:38:53;;;;;;;33.17;28.52;;;;;;;25.32;51.95;99516.81;5089228;28;20051;-66
2022/08/19 09:41:22;;;;;;;37.65;29.15;;;;;;;25.46;51.72;99509.81;5089452;28;20656;-67
2022/08/19 09:43:52;;;;;;;35.60;27.55;;;;;;;25.26;52.86;99515.66;5075067;28;20077;-68
2022/08/19 09:46:20;;;;;;;30.45;26.45;;;;;;;25.87;50.85;99507.72;5069724;28;20507;-67
2022/08/19 09:48:50;;;;;;;31.02;24.38;;;;;;;25.60;50.88;99500.97;5069917;28;20071;-67
2022/08/19 09:51:24;;;;;;;30.45;25.50;;;;;;;25.41;51.12;99501.44;5069478;28;20158;-67
2022/08/19 09:53:53;;;;;;;30.53;27.20;;;;;;;26.16;49.86;99497.97;5068894;28;20723;-67
2022/08/19 09:56:21;;;;;;;33.92;26.95;;;;;;;27.00;47.20;99497.78;5068625;28;20286;-66
2022/08/19 09:58:48;;;;;;;31.33;27.05;;;;;;;27.04;46.72;99498.22;5069096;28;20047;-67
2022/08/19 10:01:19;;;;;;;30.27;27.25;;;;;;;26.77;48.08;99501.41;5069200;28;20044;-66
2022/08/19 10:03:50;;;;;;;30.80;26.20;;;;;;;26.22;49.17;99497.25;5068636;28;20048;-67
2022/08/19 10:06:18;;;;;;;31.52;25.15;;;;;;;26.95;47.34;99500.19;5069392;28;20055;-66
2022/08/19 10:08:45;;;;;;;33.90;26.25;;;;;;;26.34;48.61;99500.34;5069306;28;20524;-66
2022/08/19 10:11:14;;;;;;;34.97;26.35;;;;;;;25.89;48.71;99500.25;5058321;28;20049;-68
2022/08/19 10:13:41;;;;;;;26.90;23.23;;;;;;;25.51;49.53;99491.22;5066194;28;20060;-67
2022/08/19 10:16:10;;;;;;;30.30;25.50;;;;;;;25.84;49.43;99499.06;5073914;28;20072;-67
2022/08/19 10:18:38;;;;;;;25.88;23.13;;;;;;;25.91;48.91;99486.56;5080165;28;20052;-68
2022/08/19 10:21:09;;;;;;;26.95;24.25;;;;;;;25.86;49.12;99492.50;5088675;28;20063;-67
2022/08/19 10:23:36;;;;;;;29.90;23.55;;;;;;;26.20;48.46;99495.78;5088231;28;20060;-68
2022/08/19 10:26:05;;;;;;;26.30;23.27;;;;;;;25.91;48.60;99497.38;5087471;28;20102;-67
2022/08/19 10:28:33;;;;;;;24.98;21.60;;;;;;;25.92;47.86;99480.16;5088584;28;20059;-67
2022/08/19 10:31:06;;;;;;;31.25;23.67;;;;;;;26.19;47.66;99488.66;5088575;28;20058;-67
2022/08/19 10:33:33;;;;;;;28.70;24.08;;;;;;;25.88;48.18;99485.06;5087669;28;20093;-67
2022/08/19 10:36:01;;;;;;;30.58;23.92;;;;;;;25.67;48.80;99490.25;5077109;28;20751;-67
2022/08/19 10:38:29;;;;;;;31.27;21.00;;;;;;;26.48;47.24;99490.56;5048134;28;20055;-68
2022/08/19 10:40:56;;;;;;;27.45;21.10;;;;;;;26.37;47.02;99489.16;5048284;28;20495;-68
2022/08/19 10:43:23;;;;;;;27.80;21.15;;;;;;;26.11;47.25;99484.19;5047942;28;20489;-68
2022/08/19 10:45:53;;;;;;;28.80;20.90;;;;;;;26.24;46.75;99489.81;5047163;28;20420;-67
2022/08/19 10:48:20;;;;;;;27.38;21.20;;;;;;;26.63;45.99;99483.34;5047826;28;20052;-67
2022/08/19 10:53:32;;;;;;;25.52;20.55;;;;;;;27.79;42.99;99484.28;5047645;28;20122;-70
2022/08/19 10:58:43;;;;;;;33.08;21.60;;;;;;;26.69;44.82;99479.88;5047553;28;20130;-68
2022/08/19 11:01:09;;;;;;;29.58;23.10;;;;;;;26.44;45.88;99483.88;5047801;28;20056;-67
2022/08/19 11:03:36;;;;;;;33.65;21.85;;;;;;;26.07;47.44;99478.31;5047554;28;20064;-68
2022/08/19 11:06:04;;;;;;;26.20;20.85;;;;;;;25.97;47.25;99485.00;5046768;28;20045;-68
2022/08/19 11:08:34;;;;;;;26.52;22.02;;;;;;;25.71;47.73;99475.38;5047328;28;20766;-68
2022/08/19 11:11:03;;;;;;;27.38;21.83;;;;;;;25.48;48.48;99476.22;5049122;28;20433;-67
2022/08/19 11:13:30;;;;;;;29.58;24.13;;;;;;;25.39;49.28;99474.59;5078823;28;20047;-68
2022/08/19 11:15:58;;;;;;;30.85;24.30;;;;;;;25.43;49.49;99478.63;5055947;28;20048;-67
2022/08/19 11:18:25;;;;;;;28.17;22.08;;;;;;;25.60;49.13;99479.38;5048531;28;20053;-67
2022/08/19 11:20:52;;;;;;;27.92;23.23;;;;;;;25.56;49.04;99478.03;5048212;28;20041;-67
2022/08/19 11:23:19;;;;;;;27.35;21.23;;;;;;;25.76;48.79;99477.56;5048586;28;20044;-68
2022/08/19 11:25:47;;;;;;;28.88;21.63;;;;;;;25.78;48.17;99478.22;5047888;28;20056;-67
2022/08/19 11:28:13;;;;;;;26.23;22.75;;;;;;;25.64;48.24;99483.38;5048714;28;20080;-67
2022/08/19 11:30:40;;;;;;;23.02;20.52;;;;;;;25.60;48.54;99481.22;5048577;28;20049;-66
2022/08/19 11:33:07;;;;;;;24.90;20.30;;;;;;;25.84;48.18;99477.47;5048816;28;20041;-67
2022/08/19 11:35:33;;;;;;;27.05;22.65;;;;;;;25.90;48.22;99485.72;5047963;28;20617;-67
2022/08/19 11:38:01;;;;;;;32.05;23.98;;;;;;;25.83;48.33;99475.81;5063132;28;20049;-67
2022/08/19 11:40:27;;;;;;;26.88;23.17;;;;;;;25.75;48.60;99479.41;5066303;28;20049;-67